Hall Beach, Canada
Current Conditions -  °F | °C
As of 6:00 PM on Thursday 23 Oct 2014 (Local Time) from CYUX Reporting Station
Blowing Snow Blowing Snow  
Wind Chill: -15°   Ceiling: 2800
Heat Index:   Visibility: 6mi
Dew Point:   Wind: 25mph
Humidity: 85%   Direction: 320°NW
Pressure: 30.14"   Gusts: NA
Location:  68.78°N, 81.22°W
Report Text: CYUX 232200Z 32022KT 6SM IC BLSN BKN028 BKN050 M14/M16 A3014 RMK SC5SC1 SLP206
Loading
Personal Weather Stations






























Interactive Weather Map
Tropical Storm Tracking
New forecast layout! Learn more

10-Day Weather Forecast

Advertisements
Track Severe Weather on mobile